createdAt,value
2018-08-28T00:01:55.644Z,1.87
2018-08-28T00:04:24.035Z,2.27
2018-08-28T00:06:52.437Z,2.30
2018-08-28T00:09:20.838Z,2.03
2018-08-28T00:11:49.433Z,2.10
2018-08-28T00:14:17.839Z,2.20
2018-08-28T00:16:46.235Z,2.90
2018-08-28T00:19:14.637Z,2.47
2018-08-28T00:21:43.230Z,2.27
2018-08-28T00:24:11.614Z,2.23
2018-08-28T00:26:40.309Z,2.50
2018-08-28T00:29:08.712Z,2.67
2018-08-28T00:31:37.126Z,2.40
2018-08-28T00:34:05.546Z,2.70
2018-08-28T00:36:33.925Z,3.00
2018-08-28T00:39:02.399Z,1.87
2018-08-28T00:41:30.790Z,2.10
2018-08-28T00:43:59.178Z,2.23
2018-08-28T00:46:27.580Z,2.87
2018-08-28T00:48:55.982Z,2.40
2018-08-28T00:51:24.374Z,2.93
2018-08-28T00:53:52.772Z,2.50
2018-08-28T00:56:21.158Z,2.30
2018-08-28T00:58:49.544Z,2.83
2018-08-28T01:01:17.954Z,2.77
2018-08-28T01:03:46.362Z,2.87
2018-08-28T01:06:14.746Z,3.00
2018-08-28T01:08:43.142Z,3.67
2018-08-28T01:11:11.950Z,3.67
2018-08-28T01:13:40.957Z,3.43
2018-08-28T01:16:09.369Z,3.50
2018-08-28T01:18:37.929Z,3.23
2018-08-28T01:21:06.355Z,3.50
2018-08-28T01:23:35.239Z,3.77
2018-08-28T01:26:03.647Z,3.60
2018-08-28T01:28:32.039Z,4.00
2018-08-28T01:31:00.444Z,3.53
2018-08-28T01:33:28.841Z,3.60
2018-08-28T01:35:57.229Z,3.23
2018-08-28T01:38:26.142Z,3.03
2018-08-28T01:40:54.535Z,3.03
2018-08-28T01:43:23.634Z,2.90
2018-08-28T01:45:53.663Z,3.17
2018-08-28T01:48:22.097Z,2.97
2018-08-28T01:50:51.302Z,3.10
2018-08-28T01:53:19.697Z,3.07
2018-08-28T01:55:48.085Z,3.33
2018-08-28T01:58:16.899Z,2.23
2018-08-28T02:00:45.327Z,2.90
2018-08-28T02:03:14.670Z,2.37
2018-08-28T02:05:43.100Z,2.40
2018-08-28T02:08:11.502Z,2.20
2018-08-28T02:10:40.119Z,2.67
2018-08-28T02:13:08.990Z,2.63
2018-08-28T02:15:37.384Z,2.90
2018-08-28T02:18:06.542Z,2.80
2018-08-28T02:20:34.939Z,3.10
2018-08-28T02:23:03.759Z,2.83
2018-08-28T02:25:32.154Z,2.60
2018-08-28T02:28:00.542Z,3.13
2018-08-28T02:30:28.938Z,2.70
2018-08-28T02:32:57.352Z,2.97
2018-08-28T02:35:26.327Z,2.90
2018-08-28T02:37:54.742Z,2.60
2018-08-28T02:40:23.132Z,3.17
2018-08-28T02:42:51.530Z,2.70
2018-08-28T02:45:19.934Z,4.17
2018-08-28T02:47:48.338Z,4.77
2018-08-28T02:50:16.858Z,6.67
2018-08-28T02:52:45.242Z,4.83
2018-08-28T02:55:13.644Z,3.63
2018-08-28T02:57:42.045Z,3.27
2018-08-28T03:00:10.435Z,3.00
2018-08-28T03:02:38.830Z,2.73
2018-08-28T03:05:07.251Z,2.47
2018-08-28T03:07:35.628Z,2.47
2018-08-28T03:10:04.548Z,2.50
2018-08-28T03:12:32.945Z,2.70
2018-08-28T03:15:01.518Z,5.77
2018-08-28T03:17:29.934Z,5.00
2018-08-28T03:19:58.581Z,3.63
2018-08-28T03:22:26.974Z,3.57
2018-08-28T03:24:55.371Z,5.33
2018-08-28T03:27:23.934Z,5.10
2018-08-28T03:29:52.330Z,5.50
2018-08-28T03:32:20.743Z,4.23
2018-08-28T03:34:49.151Z,3.57
2018-08-28T03:37:17.857Z,3.37
2018-08-28T03:39:46.262Z,4.67
2018-08-28T03:42:14.657Z,3.03
2018-08-28T03:44:43.105Z,2.87
2018-08-28T03:47:12.289Z,2.80
2018-08-28T03:49:40.775Z,2.67
2018-08-28T03:52:09.178Z,2.60
2018-08-28T03:54:37.599Z,2.27
2018-08-28T03:57:06.003Z,3.23
2018-08-28T03:59:34.838Z,3.93
2018-08-28T04:02:03.243Z,3.93
2018-08-28T04:04:31.653Z,4.77
2018-08-28T04:07:00.298Z,4.47
2018-08-28T04:09:29.138Z,3.87
2018-08-28T04:11:57.538Z,4.20
2018-08-28T04:14:26.239Z,2.97
2018-08-28T04:16:54.649Z,3.33
2018-08-28T04:19:23.040Z,4.70
2018-08-28T04:21:51.460Z,4.07
2018-08-28T04:24:19.848Z,3.20
2018-08-28T04:26:48.244Z,3.47
2018-08-28T04:29:16.652Z,3.17
2018-08-28T04:31:45.031Z,2.77
2018-08-28T04:34:13.433Z,3.40
2018-08-28T04:36:41.831Z,3.20
2018-08-28T04:39:10.229Z,3.53
2018-08-28T04:41:38.647Z,5.20
2018-08-28T04:44:07.054Z,5.37
2018-08-28T04:46:35.465Z,3.83
2018-08-28T04:49:03.861Z,3.60
2018-08-28T04:51:32.313Z,3.10
2018-08-28T04:54:00.739Z,3.23
2018-08-28T04:56:29.170Z,3.27
2018-08-28T04:58:57.581Z,3.87
2018-08-28T05:01:26.206Z,3.10
2018-08-28T05:03:55.378Z,2.80
2018-08-28T05:06:23.774Z,2.87
2018-08-28T05:08:52.196Z,2.67
2018-08-28T05:11:20.594Z,3.03
2018-08-28T05:13:49.006Z,2.67
2018-08-28T05:16:17.636Z,2.80
2018-08-28T05:18:46.678Z,3.20
2018-08-28T05:21:15.089Z,2.77
2018-08-28T05:23:43.590Z,3.00
2018-08-28T05:26:11.980Z,2.87
2018-08-28T05:28:40.598Z,2.73
2018-08-28T05:31:09.013Z,2.50
2018-08-28T05:33:37.410Z,2.20
2018-08-28T05:36:05.857Z,3.30
2018-08-28T05:38:34.276Z,3.17
2018-08-28T05:41:03.483Z,3.60
2018-08-28T05:43:32.137Z,3.23
2018-08-28T05:46:00.993Z,3.60
2018-08-28T05:48:29.385Z,4.27
2018-08-28T05:50:57.791Z,4.37
2018-08-28T05:53:26.188Z,4.63
2018-08-28T05:55:54.673Z,4.20
2018-08-28T05:58:23.009Z,4.27
2018-08-28T06:00:51.519Z,3.77
2018-08-28T06:03:20.479Z,3.43
2018-08-28T06:05:48.763Z,3.57
2018-08-28T06:08:17.205Z,3.67
2018-08-28T06:10:45.802Z,3.70
2018-08-28T06:13:14.193Z,3.17
2018-08-28T06:15:42.871Z,3.53
2018-08-28T06:18:11.289Z,3.37
2018-08-28T06:20:39.683Z,2.67
2018-08-28T06:23:08.330Z,3.17
2018-08-28T06:25:36.761Z,3.50
2018-08-28T06:28:05.192Z,3.30
2018-08-28T06:30:33.766Z,7.23
2018-08-28T06:33:02.174Z,6.20
2018-08-28T06:35:30.608Z,4.60
2018-08-28T06:37:59.294Z,4.17
2018-08-28T06:40:27.710Z,4.37
2018-08-28T06:42:56.186Z,3.57
2018-08-28T06:45:25.032Z,4.00
2018-08-28T06:47:53.658Z,7.10
2018-08-28T06:50:22.055Z,7.03
2018-08-28T06:52:50.444Z,6.13
2018-08-28T06:55:18.834Z,5.03
2018-08-28T06:57:47.272Z,4.50
2018-08-28T07:00:15.664Z,4.10
2018-08-28T07:02:44.055Z,4.30
2018-08-28T07:05:12.486Z,4.70
2018-08-28T07:07:41.374Z,5.13
2018-08-28T07:10:09.881Z,8.30
2018-08-28T07:12:38.260Z,7.10
2018-08-28T07:15:07.187Z,6.27
2018-08-28T07:17:35.570Z,5.10
2018-08-28T07:20:03.995Z,5.17
2018-08-28T07:22:32.431Z,4.40
2018-08-28T07:25:00.827Z,4.30
2018-08-28T07:27:29.216Z,4.33
2018-08-28T07:29:57.602Z,4.60
2018-08-28T07:32:25.986Z,4.20
2018-08-28T07:34:54.393Z,3.63
2018-08-28T07:37:22.845Z,6.10
2018-08-28T07:39:51.705Z,4.87
2018-08-28T07:42:20.062Z,8.43
2018-08-28T07:44:48.483Z,12.03
2018-08-28T07:47:16.941Z,9.77
2018-08-28T07:49:45.447Z,6.37
2018-08-28T07:52:13.857Z,5.07
2018-08-28T07:54:42.407Z,5.87
2018-08-28T07:57:10.837Z,6.23
2018-08-28T07:59:39.231Z,5.53
2018-08-28T08:02:07.628Z,5.70
2018-08-28T08:04:38.109Z,4.43
2018-08-28T08:07:07.610Z,8.33
2018-08-28T08:09:36.045Z,6.67
2018-08-28T08:12:04.574Z,6.07
2018-08-28T08:14:32.995Z,6.47
2018-08-28T08:17:01.429Z,4.83
2018-08-28T08:19:29.807Z,5.00
2018-08-28T08:21:58.253Z,5.10
2018-08-28T08:24:26.640Z,4.67
2018-08-28T08:26:55.038Z,4.03
2018-08-28T08:29:23.434Z,4.10
2018-08-28T08:31:51.832Z,4.73
2018-08-28T08:34:20.256Z,6.83
2018-08-28T08:36:48.761Z,6.23
2018-08-28T08:39:17.448Z,4.93
2018-08-28T08:41:46.313Z,5.40
2018-08-28T08:44:14.862Z,4.27
2018-08-28T08:46:43.688Z,5.43
2018-08-28T08:49:12.181Z,6.97
2018-08-28T08:51:41.307Z,5.63
2018-08-28T08:54:09.738Z,5.77
2018-08-28T08:56:38.152Z,9.93
2018-08-28T08:59:07.096Z,6.30
2018-08-28T09:01:36.338Z,4.80
2018-08-28T09:04:05.118Z,4.13
2018-08-28T09:06:33.602Z,4.77
2018-08-28T09:09:02.119Z,3.83
2018-08-28T09:11:30.511Z,3.73
2018-08-28T09:13:59.033Z,4.30
2018-08-28T09:16:28.139Z,4.53
2018-08-28T09:18:56.555Z,3.70
2018-08-28T09:21:24.969Z,4.33
2018-08-28T09:23:53.372Z,4.63
2018-08-28T09:26:21.776Z,4.70
2018-08-28T09:28:50.185Z,4.43
2018-08-28T09:31:18.591Z,5.03
2018-08-28T09:33:47.000Z,4.00
2018-08-28T09:36:15.435Z,3.93
2018-08-28T09:38:44.078Z,4.23
2018-08-28T09:41:12.509Z,3.13
2018-08-28T09:43:41.477Z,3.97
2018-08-28T09:46:09.915Z,3.70
2018-08-28T09:48:38.841Z,3.37
2018-08-28T09:51:08.344Z,2.97
2018-08-28T09:53:36.776Z,3.10
2018-08-28T09:56:05.737Z,3.37
2018-08-28T09:58:34.125Z,3.37
2018-08-28T10:01:07.933Z,3.07
2018-08-28T10:03:36.331Z,2.70
2018-08-28T10:06:05.019Z,2.63
2018-08-28T10:08:33.418Z,2.60
2018-08-28T10:11:02.404Z,2.33
2018-08-28T10:13:30.744Z,2.40
2018-08-28T10:15:59.244Z,2.67
2018-08-28T10:18:27.636Z,2.60
2018-08-28T10:20:56.778Z,4.27
2018-08-28T10:23:25.880Z,3.40
2018-08-28T10:25:54.284Z,3.20
2018-08-28T10:28:22.822Z,3.27
2018-08-28T10:30:51.228Z,2.90
2018-08-28T10:33:19.622Z,2.90
2018-08-28T10:35:48.018Z,3.03
2018-08-28T10:38:16.767Z,3.13
2018-08-28T10:40:45.023Z,3.73
2018-08-28T10:43:13.463Z,2.70
2018-08-28T10:45:41.874Z,2.40
2018-08-28T10:48:10.296Z,2.40
2018-08-28T10:50:38.689Z,2.00
2018-08-28T10:53:07.258Z,1.90
2018-08-28T10:55:35.839Z,1.83
2018-08-28T10:58:04.274Z,2.00
2018-08-28T11:00:32.671Z,2.07
2018-08-28T11:03:01.114Z,2.60
2018-08-28T11:05:29.495Z,1.70
2018-08-28T11:07:57.934Z,1.90
2018-08-28T11:10:26.365Z,2.43
2018-08-28T11:12:54.773Z,2.60
2018-08-28T11:15:23.197Z,2.20
2018-08-28T11:17:51.589Z,2.30
2018-08-28T11:20:19.991Z,2.33
2018-08-28T11:22:48.432Z,1.90
2018-08-28T11:25:16.799Z,2.00
2018-08-28T11:27:45.269Z,2.07
2018-08-28T11:30:13.713Z,1.80
2018-08-28T11:32:42.139Z,1.70
2018-08-28T11:35:10.531Z,1.93
2018-08-28T11:37:38.969Z,1.87
2018-08-28T11:40:07.370Z,2.30
2018-08-28T11:42:35.769Z,1.53
2018-08-28T11:45:04.177Z,1.87
2018-08-28T11:47:32.606Z,1.40
2018-08-28T11:50:01.042Z,1.70
2018-08-28T11:52:29.495Z,1.80
2018-08-28T11:54:58.152Z,1.87
2018-08-28T11:57:26.555Z,2.00
2018-08-28T11:59:54.978Z,1.70
2018-08-28T12:02:23.382Z,2.00
2018-08-28T12:04:51.828Z,1.57
2018-08-28T12:07:20.266Z,1.73
2018-08-28T12:09:48.639Z,2.73
2018-08-28T12:12:17.530Z,1.90
2018-08-28T12:14:45.974Z,1.80
2018-08-28T12:17:14.998Z,2.10
2018-08-28T12:19:43.857Z,1.80
2018-08-28T12:22:12.983Z,2.07
2018-08-28T12:24:41.859Z,2.10
2018-08-28T12:27:10.332Z,2.20
2018-08-28T12:29:38.820Z,2.20
2018-08-28T12:32:07.165Z,2.00
2018-08-28T12:34:35.563Z,1.77
2018-08-28T12:37:04.243Z,1.63
2018-08-28T12:39:32.657Z,2.30
2018-08-28T12:42:01.069Z,2.00
2018-08-28T12:44:29.679Z,1.70
2018-08-28T12:46:58.094Z,1.53
2018-08-28T12:49:26.495Z,1.80
2018-08-28T12:51:54.895Z,1.70
2018-08-28T12:54:23.302Z,1.70
2018-08-28T12:56:52.111Z,2.03
2018-08-28T12:59:20.502Z,1.80
2018-08-28T13:01:48.914Z,1.63
2018-08-28T13:04:17.312Z,1.60
2018-08-28T13:06:45.696Z,1.70
2018-08-28T13:09:14.138Z,1.77
2018-08-28T13:11:42.993Z,1.70
2018-08-28T13:14:11.397Z,1.80
2018-08-28T13:16:39.807Z,1.73
2018-08-28T13:19:09.070Z,1.90
2018-08-28T13:21:37.473Z,1.50
2018-08-28T13:24:05.875Z,1.77
2018-08-28T13:26:34.271Z,2.20
2018-08-28T13:29:02.655Z,2.13
2018-08-28T13:31:31.063Z,1.90
2018-08-28T13:33:59.478Z,2.00
2018-08-28T13:36:27.873Z,1.80
2018-08-28T13:38:56.280Z,1.83
2018-08-28T13:41:24.670Z,1.60
2018-08-28T13:43:53.064Z,1.80
2018-08-28T13:46:21.491Z,2.07
2018-08-28T13:48:49.895Z,1.67
2018-08-28T13:51:18.359Z,1.50
2018-08-28T13:53:47.132Z,1.57
2018-08-28T13:56:15.542Z,1.90
2018-08-28T13:58:43.967Z,1.83
2018-08-28T14:01:12.428Z,1.90
2018-08-28T14:03:41.194Z,2.10
2018-08-28T14:06:09.603Z,1.80
2018-08-28T14:08:38.071Z,1.97
2018-08-28T14:11:06.154Z,2.00
2018-08-28T14:13:34.554Z,1.83
2018-08-28T14:16:02.968Z,1.80
2018-08-28T14:18:31.378Z,1.90
2018-08-28T14:20:59.792Z,1.70
2018-08-28T14:23:28.189Z,1.63
2018-08-28T14:25:56.609Z,2.00
2018-08-28T14:28:25.024Z,1.80
2018-08-28T14:30:53.456Z,1.73
2018-08-28T14:33:21.875Z,1.80
2018-08-28T14:35:50.276Z,1.73
2018-08-28T14:38:18.683Z,4.40
2018-08-28T14:40:47.099Z,2.40
2018-08-28T14:43:15.497Z,2.37
2018-08-28T14:45:43.915Z,1.77
2018-08-28T14:48:12.742Z,1.80
2018-08-28T14:50:41.153Z,1.60
2018-08-28T14:53:09.563Z,1.77
2018-08-28T14:55:38.313Z,1.70
2018-08-28T14:58:06.808Z,2.10
2018-08-28T15:00:35.265Z,1.90
2018-08-28T15:03:09.694Z,1.77
2018-08-28T15:05:38.173Z,1.47
2018-08-28T15:08:06.586Z,1.93
2018-08-28T15:10:35.002Z,1.90
2018-08-28T15:13:03.424Z,1.93
2018-08-28T15:15:31.824Z,1.50
2018-08-28T15:18:00.250Z,1.80
2018-08-28T15:20:28.655Z,1.67
2018-08-28T15:22:57.071Z,1.60
2018-08-28T15:25:25.468Z,1.80
2018-08-28T15:27:59.270Z,1.70
2018-08-28T15:30:35.547Z,1.93
2018-08-28T15:33:04.484Z,1.80
2018-08-28T15:35:35.165Z,1.77
2018-08-28T15:38:05.608Z,1.53
2018-08-28T15:40:34.923Z,1.60
2018-08-28T15:43:03.321Z,1.97
2018-08-28T15:45:31.872Z,2.33
2018-08-28T15:48:00.267Z,2.27
2018-08-28T15:50:28.671Z,1.90
2018-08-28T15:52:57.058Z,1.80
2018-08-28T15:55:25.482Z,1.53
2018-08-28T15:57:54.219Z,1.80
2018-08-28T16:00:22.634Z,1.80
2018-08-28T16:02:51.379Z,1.70
2018-08-28T16:05:19.770Z,1.97
2018-08-28T16:07:48.150Z,2.10
2018-08-28T16:10:16.584Z,2.00
2018-08-28T16:12:45.713Z,2.20
2018-08-28T16:15:14.118Z,1.77
2018-08-28T16:17:42.652Z,1.80
2018-08-28T16:20:11.076Z,2.10
2018-08-28T16:22:43.897Z,2.17
2018-08-28T16:25:12.708Z,2.20
2018-08-28T16:27:41.131Z,2.33
2018-08-28T16:30:09.669Z,2.40
2018-08-28T16:32:38.280Z,2.53
2018-08-28T16:35:06.813Z,2.53
2018-08-28T16:37:35.217Z,2.70
2018-08-28T16:40:04.046Z,2.77
2018-08-28T16:42:32.453Z,3.13
2018-08-28T16:45:01.548Z,2.37
2018-08-28T16:47:29.961Z,1.77
2018-08-28T16:49:58.380Z,2.33
2018-08-28T16:52:26.799Z,2.50
2018-08-28T16:54:55.227Z,1.90
2018-08-28T16:57:23.631Z,2.97
2018-08-28T16:59:52.035Z,2.13
2018-08-28T17:02:20.474Z,2.30
2018-08-28T17:04:48.873Z,3.23
2018-08-28T17:07:17.509Z,2.97
2018-08-28T17:09:45.838Z,2.63
2018-08-28T17:12:14.235Z,2.67
2018-08-28T17:14:42.677Z,2.73
2018-08-28T17:17:11.019Z,2.70
2018-08-28T17:19:39.805Z,2.40
2018-08-28T17:22:08.217Z,2.23
2018-08-28T17:24:36.633Z,2.07
2018-08-28T17:27:05.724Z,2.90
2018-08-28T17:29:34.278Z,2.60
2018-08-28T17:32:02.674Z,2.10
2018-08-28T17:34:31.097Z,1.80
2018-08-28T17:37:00.265Z,2.20
2018-08-28T17:39:28.647Z,2.33
2018-08-28T17:41:57.049Z,2.13
2018-08-28T17:44:25.448Z,2.10
2018-08-28T17:46:54.306Z,1.83
2018-08-28T17:49:22.700Z,2.20
2018-08-28T17:51:51.116Z,2.33
2018-08-28T17:54:19.559Z,2.10
2018-08-28T17:56:48.056Z,2.00
2018-08-28T17:59:16.529Z,1.80
2018-08-28T18:01:44.941Z,2.00
2018-08-28T18:04:13.336Z,1.50
2018-08-28T18:06:41.731Z,1.90
2018-08-28T18:09:10.127Z,1.97
2018-08-28T18:11:38.546Z,2.20
2018-08-28T18:14:06.943Z,2.00
2018-08-28T18:16:35.427Z,2.20
2018-08-28T18:19:03.768Z,2.27
2018-08-28T18:21:32.476Z,2.17
2018-08-28T18:24:01.490Z,1.90
2018-08-28T18:26:29.890Z,1.83
2018-08-28T18:28:58.419Z,1.93
2018-08-28T18:31:26.791Z,2.20
2018-08-28T18:33:55.629Z,2.87
2018-08-28T18:36:24.097Z,2.30
2018-08-28T18:38:52.515Z,2.33
2018-08-28T18:41:21.032Z,2.23
2018-08-28T18:43:49.477Z,2.20
2018-08-28T18:46:17.865Z,1.97
2018-08-28T18:48:46.279Z,2.17
2018-08-28T18:51:15.972Z,2.00
2018-08-28T18:53:44.656Z,2.30
2018-08-28T18:56:13.067Z,2.13
2018-08-28T18:58:41.476Z,2.00
2018-08-28T19:01:09.937Z,2.23
2018-08-28T19:03:38.446Z,2.30
2018-08-28T19:06:06.963Z,2.20
2018-08-28T19:08:35.455Z,2.40
2018-08-28T19:11:07.542Z,2.60
2018-08-28T19:13:36.032Z,2.70
2018-08-28T19:16:04.650Z,2.40
2018-08-28T19:18:33.144Z,3.33
2018-08-28T19:21:02.034Z,3.10
2018-08-28T19:23:30.694Z,3.07
2018-08-28T19:25:59.167Z,3.47
2018-08-28T19:28:27.540Z,3.13
2018-08-28T19:30:56.375Z,2.97
2018-08-28T19:33:24.773Z,3.17
2018-08-28T19:35:53.245Z,3.30
2018-08-28T19:38:21.825Z,3.50
2018-08-28T19:40:51.210Z,4.37
2018-08-28T19:43:19.682Z,3.37
2018-08-28T19:45:48.054Z,3.77
2018-08-28T19:48:16.476Z,3.77
2018-08-28T19:50:44.880Z,3.43
2018-08-28T19:53:13.526Z,3.90
2018-08-28T19:55:41.945Z,3.20
2018-08-28T19:58:10.440Z,3.40
2018-08-28T20:00:38.822Z,3.90
2018-08-28T20:03:07.240Z,3.70
2018-08-28T20:05:35.679Z,4.07
2018-08-28T20:08:04.152Z,3.93
2018-08-28T20:10:32.552Z,3.50
2018-08-28T20:13:00.998Z,3.60
2018-08-28T20:15:29.397Z,4.07
2018-08-28T20:17:57.879Z,4.10
2018-08-28T20:20:26.295Z,4.27
2018-08-28T20:22:54.711Z,4.67
2018-08-28T20:25:23.141Z,4.07
2018-08-28T20:27:51.548Z,4.60
2018-08-28T20:30:19.951Z,4.20
2018-08-28T20:32:48.347Z,4.83
2018-08-28T20:35:16.775Z,4.77
2018-08-28T20:37:45.185Z,4.30
2018-08-28T20:40:13.593Z,4.70
2018-08-28T20:42:42.012Z,4.90
2018-08-28T20:45:10.416Z,5.00
2018-08-28T20:47:38.818Z,5.10
2018-08-28T20:50:07.207Z,4.73
2018-08-28T20:52:35.611Z,5.23
2018-08-28T20:55:04.020Z,5.67
2018-08-28T20:57:32.423Z,5.57
2018-08-28T21:00:00.828Z,5.80
2018-08-28T21:02:29.383Z,5.27
2018-08-28T21:04:57.783Z,5.30
2018-08-28T21:07:26.434Z,5.63
2018-08-28T21:09:54.825Z,4.83
2018-08-28T21:12:23.211Z,5.50
2018-08-28T21:14:51.602Z,5.53
2018-08-28T21:17:19.996Z,5.43
2018-08-28T21:19:48.774Z,6.97
2018-08-28T21:22:17.205Z,6.60
2018-08-28T21:24:45.850Z,7.73
2018-08-28T21:27:14.408Z,7.57
2018-08-28T21:29:47.794Z,7.50
2018-08-28T21:32:16.195Z,7.20
2018-08-28T21:34:44.596Z,7.30
2018-08-28T21:37:13.040Z,7.20
2018-08-28T21:39:41.468Z,7.27
2018-08-28T21:42:09.909Z,7.40
2018-08-28T21:44:38.289Z,8.10
2018-08-28T21:47:07.042Z,8.63
2018-08-28T21:49:35.432Z,8.17
2018-08-28T21:52:03.806Z,7.83
2018-08-28T21:54:32.185Z,9.93
2018-08-28T21:57:00.562Z,10.13
2018-08-28T21:59:28.957Z,9.43
2018-08-28T22:01:57.346Z,9.87
2018-08-28T22:04:25.723Z,10.20
2018-08-28T22:06:59.985Z,10.03
2018-08-28T22:09:28.228Z,9.97
2018-08-28T22:11:56.719Z,9.97
2018-08-28T22:14:25.094Z,10.23
2018-08-28T22:16:53.526Z,9.17
2018-08-28T22:19:21.920Z,9.70
2018-08-28T22:21:50.314Z,10.07
2018-08-28T22:24:18.712Z,9.30
2018-08-28T22:26:47.090Z,8.70
2018-08-28T22:29:15.510Z,9.33
2018-08-28T22:31:43.900Z,9.33
2018-08-28T22:34:12.311Z,10.43
2018-08-28T22:36:40.696Z,9.93
2018-08-28T22:39:09.090Z,9.87
2018-08-28T22:41:37.468Z,9.27
2018-08-28T22:44:05.855Z,9.47
2018-08-28T22:46:34.249Z,9.63
2018-08-28T22:49:04.543Z,9.30
2018-08-28T22:51:32.923Z,8.77
2018-08-28T22:54:01.389Z,9.40
2018-08-28T22:56:30.324Z,9.73
2018-08-28T22:58:58.757Z,9.27
2018-08-28T23:01:27.145Z,11.80
2018-08-28T23:03:55.539Z,11.20
2018-08-28T23:06:23.920Z,9.77
2018-08-28T23:08:52.343Z,8.97
2018-08-28T23:11:20.774Z,10.03
2018-08-28T23:13:49.173Z,9.93
2018-08-28T23:16:17.581Z,9.77
2018-08-28T23:18:45.986Z,10.13
2018-08-28T23:21:14.365Z,11.17
2018-08-28T23:23:42.753Z,10.43
2018-08-28T23:26:11.157Z,10.50
2018-08-28T23:28:39.553Z,11.67
2018-08-28T23:31:07.976Z,10.67
2018-08-28T23:33:36.361Z,10.00
2018-08-28T23:36:04.747Z,10.90
2018-08-28T23:38:33.147Z,9.87
2018-08-28T23:41:01.554Z,9.57
2018-08-28T23:43:29.942Z,10.10
2018-08-28T23:45:58.319Z,11.27
2018-08-28T23:48:26.701Z,11.73
2018-08-28T23:50:55.094Z,12.30
2018-08-28T23:53:23.564Z,11.70
2018-08-28T23:55:51.975Z,11.37
2018-08-28T23:58:20.382Z,10.80
